sensor_id;sensor_type;location;lat;lon;timestamp;P1;durP1;ratioP1;P2;durP2;ratioP2
495;SDS011;39559;48.630;9.162;2023-08-17T00:02:12;7.63;;;5.80;;
495;SDS011;39559;48.630;9.162;2023-08-17T00:04:38;6.67;;;6.07;;
495;SDS011;39559;48.630;9.162;2023-08-17T00:07:05;6.60;;;5.80;;
495;SDS011;39559;48.630;9.162;2023-08-17T00:09:31;7.40;;;5.95;;
495;SDS011;39559;48.630;9.162;2023-08-17T00:13:56;6.53;;;5.90;;
495;SDS011;39559;48.630;9.162;2023-08-17T00:16:21;6.27;;;5.67;;
495;SDS011;39559;48.630;9.162;2023-08-17T00:18:48;6.80;;;5.77;;
495;SDS011;39559;48.630;9.162;2023-08-17T00:21:14;8.27;;;6.70;;
495;SDS011;39559;48.630;9.162;2023-08-17T00:23:39;6.20;;;5.60;;
495;SDS011;39559;48.630;9.162;2023-08-17T00:26:05;6.93;;;6.27;;
495;SDS011;39559;48.630;9.162;2023-08-17T00:28:31;7.40;;;5.80;;
495;SDS011;39559;48.630;9.162;2023-08-17T00:30:57;6.07;;;5.47;;
495;SDS011;39559;48.630;9.162;2023-08-17T00:33:24;9.50;;;6.43;;
495;SDS011;39559;48.630;9.162;2023-08-17T00:37:51;18.20;;;5.53;;
495;SDS011;39559;48.630;9.162;2023-08-17T00:40:16;7.00;;;5.70;;
495;SDS011;39559;48.630;9.162;2023-08-17T00:42:42;7.10;;;6.20;;
495;SDS011;39559;48.630;9.162;2023-08-17T00:45:07;10.40;;;5.97;;
495;SDS011;39559;48.630;9.162;2023-08-17T00:47:33;9.17;;;5.70;;
495;SDS011;39559;48.630;9.162;2023-08-17T00:49:59;11.40;;;6.47;;
495;SDS011;39559;48.630;9.162;2023-08-17T00:52:25;13.23;;;6.70;;
495;SDS011;39559;48.630;9.162;2023-08-17T00:54:51;7.22;;;6.13;;
495;SDS011;39559;48.630;9.162;2023-08-17T00:57:16;22.53;;;6.93;;
495;SDS011;39559;48.630;9.162;2023-08-17T01:01:46;8.00;;;6.00;;
495;SDS011;39559;48.630;9.162;2023-08-17T01:04:12;7.30;;;6.00;;
495;SDS011;39559;48.630;9.162;2023-08-17T01:06:38;8.47;;;6.73;;
495;SDS011;39559;48.630;9.162;2023-08-17T01:09:04;9.30;;;7.13;;
495;SDS011;39559;48.630;9.162;2023-08-17T01:11:32;15.30;;;6.40;;
495;SDS011;39559;48.630;9.162;2023-08-17T01:16:42;14.88;;;6.32;;
495;SDS011;39559;48.630;9.162;2023-08-17T01:19:25;28.07;;;7.40;;
495;SDS011;39559;48.630;9.162;2023-08-17T01:21:54;8.75;;;6.22;;
495;SDS011;39559;48.630;9.162;2023-08-17T01:25:41;11.38;;;6.07;;
495;SDS011;39559;48.630;9.162;2023-08-17T01:28:06;10.40;;;5.80;;
495;SDS011;39559;48.630;9.162;2023-08-17T01:30:39;6.10;;;5.40;;
495;SDS011;39559;48.630;9.162;2023-08-17T01:33:09;6.30;;;5.30;;
495;SDS011;39559;48.630;9.162;2023-08-17T01:35:44;6.90;;;6.20;;
495;SDS011;39559;48.630;9.162;2023-08-17T01:38:21;9.00;;;6.72;;
495;SDS011;39559;48.630;9.162;2023-08-17T01:40:48;10.53;;;5.77;;
495;SDS011;39559;48.630;9.162;2023-08-17T01:43:16;10.10;;;5.72;;
495;SDS011;39559;48.630;9.162;2023-08-17T01:45:42;8.88;;;5.72;;
495;SDS011;39559;48.630;9.162;2023-08-17T01:49:36;7.75;;;6.85;;
495;SDS011;39559;48.630;9.162;2023-08-17T01:52:02;10.53;;;5.87;;
495;SDS011;39559;48.630;9.162;2023-08-17T01:54:27;10.40;;;6.77;;
495;SDS011;39559;48.630;9.162;2023-08-17T01:56:53;6.43;;;5.17;;
495;SDS011;39559;48.630;9.162;2023-08-17T01:59:18;9.53;;;5.90;;
495;SDS011;39559;48.630;9.162;2023-08-17T02:01:44;8.20;;;6.43;;
495;SDS011;39559;48.630;9.162;2023-08-17T02:04:09;9.13;;;6.40;;
495;SDS011;39559;48.630;9.162;2023-08-17T02:06:35;8.20;;;6.57;;
495;SDS011;39559;48.630;9.162;2023-08-17T02:09:01;11.37;;;5.73;;
495;SDS011;39559;48.630;9.162;2023-08-17T02:13:31;14.15;;;5.97;;
495;SDS011;39559;48.630;9.162;2023-08-17T02:15:57;11.10;;;6.20;;
495;SDS011;39559;48.630;9.162;2023-08-17T02:18:22;11.93;;;6.53;;
495;SDS011;39559;48.630;9.162;2023-08-17T02:20:48;8.67;;;6.27;;
495;SDS011;39559;48.630;9.162;2023-08-17T02:23:13;7.80;;;6.87;;
495;SDS011;39559;48.630;9.162;2023-08-17T02:25:39;8.37;;;7.20;;
495;SDS011;39559;48.630;9.162;2023-08-17T02:28:05;9.30;;;6.43;;
495;SDS011;39559;48.630;9.162;2023-08-17T02:30:31;8.97;;;6.87;;
495;SDS011;39559;48.630;9.162;2023-08-17T02:32:56;6.40;;;5.90;;
495;SDS011;39559;48.630;9.162;2023-08-17T02:37:26;7.20;;;6.32;;
495;SDS011;39559;48.630;9.162;2023-08-17T02:39:52;8.50;;;6.53;;
495;SDS011;39559;48.630;9.162;2023-08-17T02:42:17;7.77;;;6.10;;
495;SDS011;39559;48.630;9.162;2023-08-17T02:44:43;7.47;;;6.77;;
495;SDS011;39559;48.630;9.162;2023-08-17T02:47:08;7.10;;;6.40;;
495;SDS011;39559;48.630;9.162;2023-08-17T02:49:34;7.30;;;6.60;;
495;SDS011;39559;48.630;9.162;2023-08-17T02:52:00;7.20;;;6.35;;
495;SDS011;39559;48.630;9.162;2023-08-17T02:54:26;7.00;;;6.30;;
495;SDS011;39559;48.630;9.162;2023-08-17T02:56:51;7.77;;;7.07;;
495;SDS011;39559;48.630;9.162;2023-08-17T03:01:22;8.20;;;6.60;;
495;SDS011;39559;48.630;9.162;2023-08-17T03:03:48;8.63;;;7.20;;
495;SDS011;39559;48.630;9.162;2023-08-17T03:06:13;7.33;;;6.63;;
495;SDS011;39559;48.630;9.162;2023-08-17T03:08:39;8.73;;;7.10;;
495;SDS011;39559;48.630;9.162;2023-08-17T03:11:04;7.93;;;7.10;;
495;SDS011;39559;48.630;9.162;2023-08-17T03:13:32;7.60;;;6.90;;
495;SDS011;39559;48.630;9.162;2023-08-17T03:15:58;7.67;;;6.47;;
495;SDS011;39559;48.630;9.162;2023-08-17T03:18:23;7.07;;;6.17;;
495;SDS011;39559;48.630;9.162;2023-08-17T03:20:49;8.03;;;6.97;;
495;SDS011;39559;48.630;9.162;2023-08-17T03:25:18;7.23;;;6.53;;
495;SDS011;39559;48.630;9.162;2023-08-17T03:27:44;10.30;;;7.20;;
495;SDS011;39559;48.630;9.162;2023-08-17T03:30:09;7.60;;;6.53;;
495;SDS011;39559;48.630;9.162;2023-08-17T03:32:35;7.53;;;6.70;;
495;SDS011;39559;48.630;9.162;2023-08-17T03:35:01;7.37;;;6.27;;
495;SDS011;39559;48.630;9.162;2023-08-17T03:37:26;6.70;;;6.00;;
495;SDS011;39559;48.630;9.162;2023-08-17T03:39:51;7.23;;;6.53;;
495;SDS011;39559;48.630;9.162;2023-08-17T03:42:17;6.50;;;5.90;;
495;SDS011;39559;48.630;9.162;2023-08-17T03:44:43;5.80;;;5.30;;
495;SDS011;39559;48.630;9.162;2023-08-17T03:49:14;6.07;;;5.47;;
495;SDS011;39559;48.630;9.162;2023-08-17T03:51:40;6.37;;;5.73;;
495;SDS011;39559;48.630;9.162;2023-08-17T03:54:05;6.73;;;5.93;;
495;SDS011;39559;48.630;9.162;2023-08-17T03:56:31;7.50;;;6.13;;
495;SDS011;39559;48.630;9.162;2023-08-17T03:58:56;9.00;;;7.33;;
495;SDS011;39559;48.630;9.162;2023-08-17T04:01:22;7.53;;;6.47;;
495;SDS011;39559;48.630;9.162;2023-08-17T04:03:47;7.10;;;6.40;;
495;SDS011;39559;48.630;9.162;2023-08-17T04:06:13;20.20;;;6.97;;
495;SDS011;39559;48.630;9.162;2023-08-17T04:08:39;9.40;;;5.77;;
495;SDS011;39559;48.630;9.162;2023-08-17T04:13:09;6.50;;;5.20;;
495;SDS011;39559;48.630;9.162;2023-08-17T04:15:34;6.83;;;6.20;;
495;SDS011;39559;48.630;9.162;2023-08-17T04:18:00;9.63;;;7.47;;
495;SDS011;39559;48.630;9.162;2023-08-17T04:20:25;7.17;;;6.47;;
495;SDS011;39559;48.630;9.162;2023-08-17T04:22:51;7.10;;;6.50;;
495;SDS011;39559;48.630;9.162;2023-08-17T04:25:16;7.27;;;6.47;;
495;SDS011;39559;48.630;9.162;2023-08-17T04:27:42;9.13;;;7.10;;
495;SDS011;39559;48.630;9.162;2023-08-17T04:30:08;7.73;;;6.47;;
495;SDS011;39559;48.630;9.162;2023-08-17T04:32:34;8.20;;;6.73;;
495;SDS011;39559;48.630;9.162;2023-08-17T04:37:04;7.17;;;6.57;;
495;SDS011;39559;48.630;9.162;2023-08-17T04:39:30;9.37;;;6.90;;
495;SDS011;39559;48.630;9.162;2023-08-17T04:41:55;8.43;;;6.80;;
495;SDS011;39559;48.630;9.162;2023-08-17T04:44:21;9.10;;;6.90;;
495;SDS011;39559;48.630;9.162;2023-08-17T04:46:46;9.90;;;7.37;;
495;SDS011;39559;48.630;9.162;2023-08-17T04:49:12;12.43;;;7.03;;
495;SDS011;39559;48.630;9.162;2023-08-17T04:51:37;8.93;;;7.20;;
495;SDS011;39559;48.630;9.162;2023-08-17T04:54:03;7.47;;;6.40;;
495;SDS011;39559;48.630;9.162;2023-08-17T04:56:29;14.43;;;7.93;;
495;SDS011;39559;48.630;9.162;2023-08-17T05:00:58;9.90;;;8.30;;
495;SDS011;39559;48.630;9.162;2023-08-17T05:03:24;16.80;;;9.00;;
495;SDS011;39559;48.630;9.162;2023-08-17T05:05:51;27.50;;;9.90;;
495;SDS011;39559;48.630;9.162;2023-08-17T05:08:18;31.77;;;8.60;;
495;SDS011;39559;48.630;9.162;2023-08-17T05:10:44;10.57;;;7.80;;
495;SDS011;39559;48.630;9.162;2023-08-17T05:13:09;14.70;;;8.67;;
495;SDS011;39559;48.630;9.162;2023-08-17T05:15:35;14.10;;;8.67;;
495;SDS011;39559;48.630;9.162;2023-08-17T05:18:00;12.80;;;9.13;;
495;SDS011;39559;48.630;9.162;2023-08-17T05:20:26;18.30;;;8.57;;
495;SDS011;39559;48.630;9.162;2023-08-17T05:24:53;10.13;;;7.10;;
495;SDS011;39559;48.630;9.162;2023-08-17T05:27:19;10.67;;;7.80;;
495;SDS011;39559;48.630;9.162;2023-08-17T05:29:44;12.03;;;8.43;;
495;SDS011;39559;48.630;9.162;2023-08-17T05:32:10;14.60;;;8.57;;
495;SDS011;39559;48.630;9.162;2023-08-17T05:34:36;13.40;;;7.33;;
495;SDS011;39559;48.630;9.162;2023-08-17T05:37:02;8.90;;;8.00;;
495;SDS011;39559;48.630;9.162;2023-08-17T05:39:28;17.30;;;11.27;;
495;SDS011;39559;48.630;9.162;2023-08-17T05:41:53;15.43;;;10.90;;
495;SDS011;39559;48.630;9.162;2023-08-17T05:44:19;17.90;;;11.60;;
495;SDS011;39559;48.630;9.162;2023-08-17T05:48:51;22.23;;;13.20;;
495;SDS011;39559;48.630;9.162;2023-08-17T05:51:17;16.53;;;12.90;;
495;SDS011;39559;48.630;9.162;2023-08-17T05:53:42;15.93;;;11.57;;
495;SDS011;39559;48.630;9.162;2023-08-17T05:56:08;14.33;;;12.50;;
495;SDS011;39559;48.630;9.162;2023-08-17T05:58:33;16.43;;;12.77;;
495;SDS011;39559;48.630;9.162;2023-08-17T06:01:08;15.93;;;12.07;;
495;SDS011;39559;48.630;9.162;2023-08-17T06:03:35;17.90;;;12.10;;
495;SDS011;39559;48.630;9.162;2023-08-17T06:06:02;18.10;;;12.23;;
495;SDS011;39559;48.630;9.162;2023-08-17T06:08:28;15.33;;;11.23;;
495;SDS011;39559;48.630;9.162;2023-08-17T06:12:47;15.73;;;11.50;;
495;SDS011;39559;48.630;9.162;2023-08-17T06:15:13;13.93;;;10.73;;
495;SDS011;39559;48.630;9.162;2023-08-17T06:17:39;17.23;;;10.53;;
495;SDS011;39559;48.630;9.162;2023-08-17T06:20:04;15.27;;;11.03;;
495;SDS011;39559;48.630;9.162;2023-08-17T06:22:32;16.30;;;11.17;;
495;SDS011;39559;48.630;9.162;2023-08-17T06:24:57;17.93;;;11.30;;
495;SDS011;39559;48.630;9.162;2023-08-17T06:27:23;13.60;;;11.50;;
495;SDS011;39559;48.630;9.162;2023-08-17T06:29:49;14.90;;;10.53;;
495;SDS011;39559;48.630;9.162;2023-08-17T06:32:15;17.50;;;11.87;;
495;SDS011;39559;48.630;9.162;2023-08-17T06:36:42;16.50;;;11.23;;
495;SDS011;39559;48.630;9.162;2023-08-17T06:39:25;18.43;;;11.73;;
495;SDS011;39559;48.630;9.162;2023-08-17T06:41:59;12.90;;;11.20;;
495;SDS011;39559;48.630;9.162;2023-08-17T06:44:25;20.03;;;11.13;;
495;SDS011;39559;48.630;9.162;2023-08-17T06:46:50;15.17;;;11.00;;
495;SDS011;39559;48.630;9.162;2023-08-17T06:49:16;11.70;;;10.50;;
495;SDS011;39559;48.630;9.162;2023-08-17T06:51:42;14.10;;;11.73;;
495;SDS011;39559;48.630;9.162;2023-08-17T06:54:07;13.17;;;10.20;;
495;SDS011;39559;48.630;9.162;2023-08-17T06:56:34;16.07;;;10.20;;
495;SDS011;39559;48.630;9.162;2023-08-17T07:00:38;15.40;;;10.73;;
495;SDS011;39559;48.630;9.162;2023-08-17T07:03:05;13.13;;;10.63;;
495;SDS011;39559;48.630;9.162;2023-08-17T07:05:32;15.70;;;10.13;;
495;SDS011;39559;48.630;9.162;2023-08-17T07:07:58;19.30;;;11.20;;
495;SDS011;39559;48.630;9.162;2023-08-17T07:10:24;14.23;;;10.67;;
495;SDS011;39559;48.630;9.162;2023-08-17T07:12:50;13.50;;;9.47;;
495;SDS011;39559;48.630;9.162;2023-08-17T07:15:16;11.50;;;9.80;;
495;SDS011;39559;48.630;9.162;2023-08-17T07:17:42;13.33;;;9.80;;
495;SDS011;39559;48.630;9.162;2023-08-17T07:20:07;10.67;;;9.17;;
495;SDS011;39559;48.630;9.162;2023-08-17T07:24:34;13.67;;;9.57;;
495;SDS011;39559;48.630;9.162;2023-08-17T07:26:59;11.73;;;9.70;;
495;SDS011;39559;48.630;9.162;2023-08-17T07:29:25;13.67;;;10.27;;
495;SDS011;39559;48.630;9.162;2023-08-17T07:31:50;16.10;;;10.93;;
495;SDS011;39559;48.630;9.162;2023-08-17T07:34:16;15.47;;;10.10;;
495;SDS011;39559;48.630;9.162;2023-08-17T07:36:41;12.00;;;9.80;;
495;SDS011;39559;48.630;9.162;2023-08-17T07:39:07;12.73;;;10.13;;
495;SDS011;39559;48.630;9.162;2023-08-17T07:41:33;12.00;;;9.17;;
495;SDS011;39559;48.630;9.162;2023-08-17T07:43:59;13.00;;;10.23;;
495;SDS011;39559;48.630;9.162;2023-08-17T07:48:29;10.87;;;8.80;;
495;SDS011;39559;48.630;9.162;2023-08-17T07:50:58;10.13;;;8.73;;
495;SDS011;39559;48.630;9.162;2023-08-17T07:53:25;10.00;;;9.00;;
495;SDS011;39559;48.630;9.162;2023-08-17T07:55:51;11.50;;;9.37;;
495;SDS011;39559;48.630;9.162;2023-08-17T07:58:16;14.73;;;10.87;;
495;SDS011;39559;48.630;9.162;2023-08-17T08:00:42;13.03;;;10.90;;
495;SDS011;39559;48.630;9.162;2023-08-17T08:03:08;13.43;;;9.67;;
495;SDS011;39559;48.630;9.162;2023-08-17T08:05:33;13.00;;;8.37;;
495;SDS011;39559;48.630;9.162;2023-08-17T08:07:59;10.70;;;8.50;;
495;SDS011;39559;48.630;9.162;2023-08-17T08:12:24;10.20;;;9.07;;
495;SDS011;39559;48.630;9.162;2023-08-17T08:14:49;9.07;;;8.10;;
495;SDS011;39559;48.630;9.162;2023-08-17T08:17:16;12.73;;;10.23;;
495;SDS011;39559;48.630;9.162;2023-08-17T08:19:41;10.53;;;8.87;;
495;SDS011;39559;48.630;9.162;2023-08-17T08:22:07;8.80;;;7.90;;
495;SDS011;39559;48.630;9.162;2023-08-17T08:24:33;9.37;;;7.90;;
495;SDS011;39559;48.630;9.162;2023-08-17T08:27:02;8.60;;;7.73;;
495;SDS011;39559;48.630;9.162;2023-08-17T08:29:28;10.00;;;9.00;;
495;SDS011;39559;48.630;9.162;2023-08-17T08:31:53;9.00;;;8.10;;
495;SDS011;39559;48.630;9.162;2023-08-17T08:36:20;8.33;;;7.30;;
495;SDS011;39559;48.630;9.162;2023-08-17T08:38:46;8.67;;;7.73;;
495;SDS011;39559;48.630;9.162;2023-08-17T08:41:11;9.63;;;7.20;;
495;SDS011;39559;48.630;9.162;2023-08-17T08:43:38;11.00;;;7.90;;
495;SDS011;39559;48.630;9.162;2023-08-17T08:46:07;9.23;;;7.30;;
495;SDS011;39559;48.630;9.162;2023-08-17T08:48:38;9.00;;;8.03;;
495;SDS011;39559;48.630;9.162;2023-08-17T08:51:07;8.90;;;7.47;;
495;SDS011;39559;48.630;9.162;2023-08-17T08:53:38;10.20;;;7.97;;
495;SDS011;39559;48.630;9.162;2023-08-17T08:56:16;8.00;;;7.27;;
495;SDS011;39559;48.630;9.162;2023-08-17T09:00:17;10.07;;;6.20;;
495;SDS011;39559;48.630;9.162;2023-08-17T09:02:44;10.87;;;7.37;;
495;SDS011;39559;48.630;9.162;2023-08-17T09:05:11;10.40;;;7.70;;
495;SDS011;39559;48.630;9.162;2023-08-17T09:07:39;10.13;;;8.97;;
495;SDS011;39559;48.630;9.162;2023-08-17T09:10:08;8.80;;;7.90;;
495;SDS011;39559;48.630;9.162;2023-08-17T09:12:35;8.33;;;7.43;;
495;SDS011;39559;48.630;9.162;2023-08-17T09:15:03;7.60;;;6.87;;
495;SDS011;39559;48.630;9.162;2023-08-17T09:17:31;7.47;;;6.70;;
495;SDS011;39559;48.630;9.162;2023-08-17T09:19:59;8.50;;;6.97;;
495;SDS011;39559;48.630;9.162;2023-08-17T09:24:11;7.50;;;6.77;;
495;SDS011;39559;48.630;9.162;2023-08-17T09:26:37;7.43;;;6.73;;
495;SDS011;39559;48.630;9.162;2023-08-17T09:29:15;6.57;;;5.97;;
495;SDS011;39559;48.630;9.162;2023-08-17T09:31:42;6.23;;;5.73;;
495;SDS011;39559;48.630;9.162;2023-08-17T09:34:08;7.27;;;6.57;;
495;SDS011;39559;48.630;9.162;2023-08-17T09:36:35;8.00;;;6.07;;
495;SDS011;39559;48.630;9.162;2023-08-17T09:39:02;6.20;;;5.60;;
495;SDS011;39559;48.630;9.162;2023-08-17T09:41:28;7.10;;;6.30;;
495;SDS011;39559;48.630;9.162;2023-08-17T09:43:54;6.53;;;6.00;;
495;SDS011;39559;48.630;9.162;2023-08-17T09:48:09;6.10;;;5.50;;
495;SDS011;39559;48.630;9.162;2023-08-17T09:50:35;8.53;;;6.33;;
495;SDS011;39559;48.630;9.162;2023-08-17T09:53:02;9.03;;;6.90;;
495;SDS011;39559;48.630;9.162;2023-08-17T09:55:30;5.80;;;5.23;;
495;SDS011;39559;48.630;9.162;2023-08-17T09:57:59;6.40;;;5.80;;
495;SDS011;39559;48.630;9.162;2023-08-17T10:00:26;6.50;;;5.83;;
495;SDS011;39559;48.630;9.162;2023-08-17T10:02:52;6.00;;;5.40;;
495;SDS011;39559;48.630;9.162;2023-08-17T10:05:19;7.13;;;5.87;;
495;SDS011;39559;48.630;9.162;2023-08-17T10:07:51;5.53;;;5.03;;
495;SDS011;39559;48.630;9.162;2023-08-17T10:12:02;5.50;;;5.00;;
495;SDS011;39559;48.630;9.162;2023-08-17T10:14:39;6.10;;;5.50;;
495;SDS011;39559;48.630;9.162;2023-08-17T10:17:12;5.37;;;4.70;;
495;SDS011;39559;48.630;9.162;2023-08-17T10:19:59;5.97;;;5.37;;
495;SDS011;39559;48.630;9.162;2023-08-17T10:25:12;5.77;;;5.20;;
495;SDS011;39559;48.630;9.162;2023-08-17T10:27:39;6.77;;;6.20;;
495;SDS011;39559;48.630;9.162;2023-08-17T10:30:08;5.53;;;5.03;;
495;SDS011;39559;48.630;9.162;2023-08-17T10:32:35;6.23;;;5.57;;
495;SDS011;39559;48.630;9.162;2023-08-17T10:35:57;5.70;;;5.20;;
495;SDS011;39559;48.630;9.162;2023-08-17T10:38:25;5.23;;;4.73;;
495;SDS011;39559;48.630;9.162;2023-08-17T10:41:13;6.00;;;5.50;;
495;SDS011;39559;48.630;9.162;2023-08-17T10:43:58;5.83;;;5.17;;
495;SDS011;39559;48.630;9.162;2023-08-17T10:46:37;5.27;;;4.87;;
495;SDS011;39559;48.630;9.162;2023-08-17T10:49:06;6.80;;;5.83;;
495;SDS011;39559;48.630;9.162;2023-08-17T10:52:02;6.40;;;5.77;;
495;SDS011;39559;48.630;9.162;2023-08-17T10:54:38;6.50;;;5.90;;
495;SDS011;39559;48.630;9.162;2023-08-17T11:00:36;5.60;;;5.10;;
495;SDS011;39559;48.630;9.162;2023-08-17T11:02:37;5.83;;;5.33;;
495;SDS011;39559;48.630;9.162;2023-08-17T11:05:03;8.60;;;5.53;;
495;SDS011;39559;48.630;9.162;2023-08-17T11:07:42;5.77;;;5.27;;
495;SDS011;39559;48.630;9.162;2023-08-17T11:12:53;5.33;;;4.87;;
495;SDS011;39559;48.630;9.162;2023-08-17T11:15:57;6.93;;;6.33;;
495;SDS011;39559;48.630;9.162;2023-08-17T11:18:16;6.00;;;5.40;;
495;SDS011;39559;48.630;9.162;2023-08-17T11:20:42;6.70;;;6.10;;
495;SDS011;39559;48.630;9.162;2023-08-17T11:23:46;7.10;;;6.43;;
495;SDS011;39559;48.630;9.162;2023-08-17T11:26:16;5.83;;;5.33;;
495;SDS011;39559;48.630;9.162;2023-08-17T11:28:43;6.40;;;5.77;;
495;SDS011;39559;48.630;9.162;2023-08-17T11:31:10;6.03;;;5.40;;
495;SDS011;39559;48.630;9.162;2023-08-17T11:33:38;7.13;;;5.57;;
495;SDS011;39559;48.630;9.162;2023-08-17T11:36:05;6.50;;;5.90;;
495;SDS011;39559;48.630;9.162;2023-08-17T11:38:33;6.90;;;6.00;;
495;SDS011;39559;48.630;9.162;2023-08-17T11:41:00;7.10;;;5.57;;
495;SDS011;39559;48.630;9.162;2023-08-17T11:43:27;7.37;;;6.37;;
495;SDS011;39559;48.630;9.162;2023-08-17T11:47:41;6.40;;;5.80;;
495;SDS011;39559;48.630;9.162;2023-08-17T11:50:11;7.20;;;6.17;;
495;SDS011;39559;48.630;9.162;2023-08-17T11:52:37;7.00;;;6.00;;
495;SDS011;39559;48.630;9.162;2023-08-17T11:55:06;5.90;;;5.40;;
495;SDS011;39559;48.630;9.162;2023-08-17T11:57:35;6.70;;;5.80;;
495;SDS011;39559;48.630;9.162;2023-08-17T12:00:01;6.37;;;5.20;;
495;SDS011;39559;48.630;9.162;2023-08-17T12:02:28;6.60;;;5.80;;
495;SDS011;39559;48.630;9.162;2023-08-17T12:04:55;5.53;;;5.00;;
495;SDS011;39559;48.630;9.162;2023-08-17T12:07:22;6.23;;;5.43;;
495;SDS011;39559;48.630;9.162;2023-08-17T12:11:36;5.97;;;5.33;;
495;SDS011;39559;48.630;9.162;2023-08-17T12:14:08;6.73;;;6.03;;
495;SDS011;39559;48.630;9.162;2023-08-17T12:16:44;5.77;;;5.23;;
495;SDS011;39559;48.630;9.162;2023-08-17T12:19:12;25.53;;;6.47;;
495;SDS011;39559;48.630;9.162;2023-08-17T12:21:37;6.23;;;5.67;;
495;SDS011;39559;48.630;9.162;2023-08-17T12:24:08;6.13;;;5.53;;
495;SDS011;39559;48.630;9.162;2023-08-17T12:26:34;7.17;;;6.23;;
495;SDS011;39559;48.630;9.162;2023-08-17T12:29:00;5.40;;;4.90;;
495;SDS011;39559;48.630;9.162;2023-08-17T12:31:30;7.00;;;5.60;;
495;SDS011;39559;48.630;9.162;2023-08-17T12:35:31;5.60;;;5.10;;
495;SDS011;39559;48.630;9.162;2023-08-17T12:37:57;6.23;;;5.63;;
495;SDS011;39559;48.630;9.162;2023-08-17T12:40:22;5.80;;;5.30;;
495;SDS011;39559;48.630;9.162;2023-08-17T12:42:48;7.27;;;6.63;;
495;SDS011;39559;48.630;9.162;2023-08-17T12:45:15;6.23;;;5.63;;
495;SDS011;39559;48.630;9.162;2023-08-17T12:47:41;6.40;;;5.80;;
495;SDS011;39559;48.630;9.162;2023-08-17T12:50:07;8.17;;;6.60;;
495;SDS011;39559;48.630;9.162;2023-08-17T12:52:32;6.30;;;5.67;;
495;SDS011;39559;48.630;9.162;2023-08-17T12:54:58;7.97;;;7.17;;
495;SDS011;39559;48.630;9.162;2023-08-17T12:59:24;7.10;;;6.47;;
495;SDS011;39559;48.630;9.162;2023-08-17T13:01:50;7.60;;;6.10;;
495;SDS011;39559;48.630;9.162;2023-08-17T13:04:15;8.13;;;6.60;;
495;SDS011;39559;48.630;9.162;2023-08-17T13:06:41;7.70;;;6.90;;
495;SDS011;39559;48.630;9.162;2023-08-17T13:09:07;8.30;;;6.90;;
495;SDS011;39559;48.630;9.162;2023-08-17T13:11:32;7.43;;;6.73;;
495;SDS011;39559;48.630;9.162;2023-08-17T13:13:58;8.90;;;6.33;;
495;SDS011;39559;48.630;9.162;2023-08-17T13:16:23;8.70;;;6.10;;
495;SDS011;39559;48.630;9.162;2023-08-17T13:18:49;9.80;;;7.03;;
495;SDS011;39559;48.630;9.162;2023-08-17T13:23:18;6.53;;;5.80;;
495;SDS011;39559;48.630;9.162;2023-08-17T13:25:44;7.20;;;6.23;;
495;SDS011;39559;48.630;9.162;2023-08-17T13:28:10;6.73;;;6.00;;
495;SDS011;39559;48.630;9.162;2023-08-17T13:30:35;8.83;;;6.60;;
495;SDS011;39559;48.630;9.162;2023-08-17T13:33:01;9.20;;;6.87;;
495;SDS011;39559;48.630;9.162;2023-08-17T13:35:26;9.93;;;7.80;;
495;SDS011;39559;48.630;9.162;2023-08-17T13:37:52;22.57;;;6.30;;
495;SDS011;39559;48.630;9.162;2023-08-17T13:40:22;9.03;;;7.60;;
495;SDS011;39559;48.630;9.162;2023-08-17T13:42:48;6.27;;;5.67;;
495;SDS011;39559;48.630;9.162;2023-08-17T13:47:13;6.93;;;6.30;;
495;SDS011;39559;48.630;9.162;2023-08-17T13:49:38;7.40;;;6.50;;
495;SDS011;39559;48.630;9.162;2023-08-17T13:52:04;6.70;;;6.00;;
495;SDS011;39559;48.630;9.162;2023-08-17T13:54:30;6.67;;;5.80;;
495;SDS011;39559;48.630;9.162;2023-08-17T13:56:55;7.20;;;6.60;;
495;SDS011;39559;48.630;9.162;2023-08-17T13:59:21;5.77;;;5.27;;
495;SDS011;39559;48.630;9.162;2023-08-17T14:01:47;9.17;;;7.10;;
495;SDS011;39559;48.630;9.162;2023-08-17T14:04:12;6.87;;;5.57;;
495;SDS011;39559;48.630;9.162;2023-08-17T14:06:39;7.50;;;6.60;;
495;SDS011;39559;48.630;9.162;2023-08-17T14:11:07;7.10;;;6.40;;
495;SDS011;39559;48.630;9.162;2023-08-17T14:13:33;7.83;;;7.00;;
495;SDS011;39559;48.630;9.162;2023-08-17T14:15:59;7.23;;;6.53;;
495;SDS011;39559;48.630;9.162;2023-08-17T14:18:25;6.80;;;6.10;;
495;SDS011;39559;48.630;9.162;2023-08-17T14:20:51;7.00;;;6.00;;
495;SDS011;39559;48.630;9.162;2023-08-17T14:23:16;7.30;;;6.60;;
495;SDS011;39559;48.630;9.162;2023-08-17T14:25:42;7.47;;;6.10;;
495;SDS011;39559;48.630;9.162;2023-08-17T14:28:07;7.07;;;6.43;;
495;SDS011;39559;48.630;9.162;2023-08-17T14:30:33;5.63;;;5.13;;
495;SDS011;39559;48.630;9.162;2023-08-17T14:35:00;7.03;;;6.23;;
495;SDS011;39559;48.630;9.162;2023-08-17T14:37:25;7.80;;;7.10;;
495;SDS011;39559;48.630;9.162;2023-08-17T14:39:51;6.70;;;6.00;;
495;SDS011;39559;48.630;9.162;2023-08-17T14:42:17;7.90;;;6.47;;
495;SDS011;39559;48.630;9.162;2023-08-17T14:44:42;7.93;;;6.90;;
495;SDS011;39559;48.630;9.162;2023-08-17T14:47:08;8.27;;;6.87;;
495;SDS011;39559;48.630;9.162;2023-08-17T14:49:33;8.00;;;7.30;;
495;SDS011;39559;48.630;9.162;2023-08-17T14:51:59;8.23;;;7.03;;
495;SDS011;39559;48.630;9.162;2023-08-17T14:54:24;8.57;;;7.73;;
495;SDS011;39559;48.630;9.162;2023-08-17T14:58:55;8.90;;;6.53;;
495;SDS011;39559;48.630;9.162;2023-08-17T15:01:20;8.00;;;6.80;;
495;SDS011;39559;48.630;9.162;2023-08-17T15:03:46;11.73;;;7.47;;
495;SDS011;39559;48.630;9.162;2023-08-17T15:06:12;6.83;;;5.77;;
495;SDS011;39559;48.630;9.162;2023-08-17T15:08:37;8.30;;;6.57;;
495;SDS011;39559;48.630;9.162;2023-08-17T15:11:03;11.20;;;7.20;;
495;SDS011;39559;48.630;9.162;2023-08-17T15:13:28;6.33;;;5.73;;
495;SDS011;39559;48.630;9.162;2023-08-17T15:15:57;7.10;;;6.40;;
495;SDS011;39559;48.630;9.162;2023-08-17T15:18:22;7.23;;;6.53;;
495;SDS011;39559;48.630;9.162;2023-08-17T15:22:49;6.97;;;6.27;;
495;SDS011;39559;48.630;9.162;2023-08-17T15:25:14;6.47;;;5.80;;
495;SDS011;39559;48.630;9.162;2023-08-17T15:27:40;7.80;;;7.10;;
495;SDS011;39559;48.630;9.162;2023-08-17T15:30:05;8.23;;;6.60;;
495;SDS011;39559;48.630;9.162;2023-08-17T15:32:31;6.70;;;5.57;;
495;SDS011;39559;48.630;9.162;2023-08-17T15:34:57;7.73;;;7.00;;
495;SDS011;39559;48.630;9.162;2023-08-17T15:37:23;7.80;;;7.03;;
495;SDS011;39559;48.630;9.162;2023-08-17T15:39:49;11.60;;;7.30;;
495;SDS011;39559;48.630;9.162;2023-08-17T15:42:15;7.50;;;6.30;;
495;SDS011;39559;48.630;9.162;2023-08-17T15:46:43;8.30;;;7.50;;
495;SDS011;39559;48.630;9.162;2023-08-17T15:49:08;7.00;;;6.30;;
495;SDS011;39559;48.630;9.162;2023-08-17T15:51:34;7.83;;;6.83;;
495;SDS011;39559;48.630;9.162;2023-08-17T15:54:00;8.77;;;7.40;;
495;SDS011;39559;48.630;9.162;2023-08-17T15:56:25;7.93;;;6.90;;
495;SDS011;39559;48.630;9.162;2023-08-17T15:58:51;8.00;;;6.23;;
495;SDS011;39559;48.630;9.162;2023-08-17T16:01:16;7.80;;;7.00;;
495;SDS011;39559;48.630;9.162;2023-08-17T16:03:42;7.73;;;6.80;;
495;SDS011;39559;48.630;9.162;2023-08-17T16:06:07;8.40;;;7.20;;
495;SDS011;39559;48.630;9.162;2023-08-17T16:10:37;8.27;;;5.93;;
495;SDS011;39559;48.630;9.162;2023-08-17T16:13:03;5.70;;;5.20;;
495;SDS011;39559;48.630;9.162;2023-08-17T16:15:28;8.07;;;6.80;;
495;SDS011;39559;48.630;9.162;2023-08-17T16:17:54;6.77;;;5.90;;
495;SDS011;39559;48.630;9.162;2023-08-17T16:20:19;8.67;;;5.80;;
495;SDS011;39559;48.630;9.162;2023-08-17T16:22:45;7.63;;;6.30;;
495;SDS011;39559;48.630;9.162;2023-08-17T16:25:11;8.90;;;5.83;;
495;SDS011;39559;48.630;9.162;2023-08-17T16:27:36;7.80;;;6.50;;
495;SDS011;39559;48.630;9.162;2023-08-17T16:30:02;6.93;;;6.23;;
495;SDS011;39559;48.630;9.162;2023-08-17T16:34:31;6.83;;;6.23;;
495;SDS011;39559;48.630;9.162;2023-08-17T16:36:58;6.90;;;6.20;;